sensor_id;sensor_type;location;lat;lon;timestamp;pressure;altitude;pressure_sealevel;temperature;humidity
51053;BME280;37093;37.716;-122.060;2023-02-14T00:01:06;99517.25;;;18.82;36.55
51053;BME280;37093;37.716;-122.060;2023-02-14T00:03:36;99511.77;;;19.02;35.71
51053;BME280;37093;37.716;-122.060;2023-02-14T00:06:06;99507.57;;;19.60;35.41
51053;BME280;37093;37.716;-122.060;2023-02-14T00:08:35;99507.17;;;19.20;36.16
51053;BME280;37093;37.716;-122.060;2023-02-14T00:11:04;99499.14;;;19.15;35.89
51053;BME280;37093;37.716;-122.060;2023-02-14T00:13:33;99504.32;;;18.72;36.18
51053;BME280;37093;37.716;-122.060;2023-02-14T00:16:01;99505.30;;;19.41;35.79
51053;BME280;37093;37.716;-122.060;2023-02-14T00:18:30;99497.86;;;18.46;36.84
51053;BME280;37093;37.716;-122.060;2023-02-14T00:20:59;99505.36;;;18.86;36.21
51053;BME280;37093;37.716;-122.060;2023-02-14T00:23:29;99513.08;;;18.78;35.83
51053;BME280;37093;37.716;-122.060;2023-02-14T00:25:57;99519.69;;;19.00;35.36
51053;BME280;37093;37.716;-122.060;2023-02-14T00:28:26;99521.49;;;19.57;34.74
51053;BME280;37093;37.716;-122.060;2023-02-14T00:30:56;99518.98;;;18.73;34.78
51053;BME280;37093;37.716;-122.060;2023-02-14T00:33:25;99520.76;;;18.74;33.28
51053;BME280;37093;37.716;-122.060;2023-02-14T00:35:53;99528.33;;;18.91;33.93
51053;BME280;37093;37.716;-122.060;2023-02-14T00:38:22;99530.92;;;18.45;33.41
51053;BME280;37093;37.716;-122.060;2023-02-14T00:40:50;99523.34;;;18.05;33.70
51053;BME280;37093;37.716;-122.060;2023-02-14T00:43:18;99530.53;;;17.90;33.79
51053;BME280;37093;37.716;-122.060;2023-02-14T00:45:47;99534.68;;;17.66;34.53
51053;BME280;37093;37.716;-122.060;2023-02-14T00:48:15;99548.38;;;18.06;34.38
51053;BME280;37093;37.716;-122.060;2023-02-14T00:50:44;99543.88;;;17.50;35.56
51053;BME280;37093;37.716;-122.060;2023-02-14T00:53:12;99541.16;;;16.88;36.34
51053;BME280;37093;37.716;-122.060;2023-02-14T00:55:43;99542.87;;;17.23;35.94
51053;BME280;37093;37.716;-122.060;2023-02-14T00:58:11;99552.14;;;17.19;35.82
51053;BME280;37093;37.716;-122.060;2023-02-14T01:00:39;99557.79;;;17.29;35.46
51053;BME280;37093;37.716;-122.060;2023-02-14T01:03:07;99555.13;;;17.86;34.77
51053;BME280;37093;37.716;-122.060;2023-02-14T01:05:36;99557.24;;;17.74;34.84
51053;BME280;37093;37.716;-122.060;2023-02-14T01:08:04;99563.00;;;17.97;34.66
51053;BME280;37093;37.716;-122.060;2023-02-14T01:10:34;99566.75;;;17.45;35.39
51053;BME280;37093;37.716;-122.060;2023-02-14T01:13:04;99557.97;;;17.29;35.19
51053;BME280;37093;37.716;-122.060;2023-02-14T01:15:32;99550.88;;;17.16;35.56
51053;BME280;37093;37.716;-122.060;2023-02-14T01:18:05;99548.20;;;16.80;36.34
51053;BME280;37093;37.716;-122.060;2023-02-14T01:20:34;99542.12;;;17.28;35.67
51053;BME280;37093;37.716;-122.060;2023-02-14T01:23:02;99549.54;;;17.10;35.87
51053;BME280;37093;37.716;-122.060;2023-02-14T01:25:32;99559.03;;;17.65;35.07
51053;BME280;37093;37.716;-122.060;2023-02-14T01:28:01;99562.41;;;17.52;35.14
51053;BME280;37093;37.716;-122.060;2023-02-14T01:30:30;99558.40;;;17.23;35.48
51053;BME280;37093;37.716;-122.060;2023-02-14T01:32:59;99561.61;;;17.03;36.10
51053;BME280;37093;37.716;-122.060;2023-02-14T01:35:26;99553.05;;;16.69;36.05
51053;BME280;37093;37.716;-122.060;2023-02-14T01:37:54;99548.64;;;17.47;34.88
51053;BME280;37093;37.716;-122.060;2023-02-14T01:40:23;99559.75;;;17.70;34.27
51053;BME280;37093;37.716;-122.060;2023-02-14T01:42:52;99565.42;;;17.53;34.49
51053;BME280;37093;37.716;-122.060;2023-02-14T01:45:22;99567.00;;;16.65;34.57
51053;BME280;37093;37.716;-122.060;2023-02-14T01:47:54;99568.64;;;16.79;34.82
51053;BME280;37093;37.716;-122.060;2023-02-14T01:50:26;99575.98;;;16.80;35.63
51053;BME280;37093;37.716;-122.060;2023-02-14T01:53:00;99578.01;;;17.25;34.88
51053;BME280;37093;37.716;-122.060;2023-02-14T01:55:32;99578.84;;;16.87;34.23
51053;BME280;37093;37.716;-122.060;2023-02-14T01:58:06;99573.30;;;17.35;34.12
51053;BME280;37093;37.716;-122.060;2023-02-14T02:00:37;99571.53;;;17.50;34.03
51053;BME280;37093;37.716;-122.060;2023-02-14T02:03:06;99573.28;;;16.37;34.03
51053;BME280;37093;37.716;-122.060;2023-02-14T02:05:37;99575.44;;;16.81;33.91
51053;BME280;37093;37.716;-122.060;2023-02-14T02:08:06;99576.61;;;16.45;34.31
51053;BME280;37093;37.716;-122.060;2023-02-14T02:10:35;99584.36;;;16.61;34.38
51053;BME280;37093;37.716;-122.060;2023-02-14T02:13:06;99589.56;;;16.60;34.39
51053;BME280;37093;37.716;-122.060;2023-02-14T02:15:39;99597.25;;;16.49;34.37
51053;BME280;37093;37.716;-122.060;2023-02-14T02:18:14;99598.04;;;16.58;34.33
51053;BME280;37093;37.716;-122.060;2023-02-14T02:21:41;99600.82;;;16.90;34.53
51053;BME280;37093;37.716;-122.060;2023-02-14T02:24:23;99613.96;;;17.15;33.45
51053;BME280;37093;37.716;-122.060;2023-02-14T02:27:23;99611.70;;;17.13;33.81
51053;BME280;37093;37.716;-122.060;2023-02-14T02:31:58;99603.99;;;17.06;33.34
51053;BME280;37093;37.716;-122.060;2023-02-14T02:35:17;99602.37;;;17.16;33.27
51053;BME280;37093;37.716;-122.060;2023-02-14T02:37:58;99615.95;;;16.44;33.94
51053;BME280;37093;37.716;-122.060;2023-02-14T02:40:40;99631.92;;;17.00;34.13
51053;BME280;37093;37.716;-122.060;2023-02-14T02:43:21;99635.89;;;16.56;34.69
51053;BME280;37093;37.716;-122.060;2023-02-14T02:45:59;99633.15;;;16.86;34.28
51053;BME280;37093;37.716;-122.060;2023-02-14T02:48:35;99626.56;;;16.66;34.27
51053;BME280;37093;37.716;-122.060;2023-02-14T02:51:11;99640.22;;;16.92;34.07
51053;BME280;37093;37.716;-122.060;2023-02-14T02:53:46;99647.70;;;16.54;34.08
51053;BME280;37093;37.716;-122.060;2023-02-14T02:56:21;99647.67;;;16.16;34.65
51053;BME280;37093;37.716;-122.060;2023-02-14T02:58:52;99646.22;;;16.41;34.44
51053;BME280;37093;37.716;-122.060;2023-02-14T03:01:25;99651.68;;;16.59;34.46
51053;BME280;37093;37.716;-122.060;2023-02-14T03:03:59;99656.21;;;16.35;34.58
51053;BME280;37093;37.716;-122.060;2023-02-14T03:06:29;99657.39;;;16.72;34.23
51053;BME280;37093;37.716;-122.060;2023-02-14T03:09:08;99659.24;;;16.25;34.65
51053;BME280;37093;37.716;-122.060;2023-02-14T03:11:37;99656.35;;;15.94;35.51
51053;BME280;37093;37.716;-122.060;2023-02-14T03:14:18;99655.12;;;16.38;34.94
51053;BME280;37093;37.716;-122.060;2023-02-14T03:16:58;99649.98;;;16.40;34.06
51053;BME280;37093;37.716;-122.060;2023-02-14T03:19:41;99643.58;;;16.30;34.23
51053;BME280;37093;37.716;-122.060;2023-02-14T03:22:23;99645.56;;;16.24;34.20
51053;BME280;37093;37.716;-122.060;2023-02-14T03:24:58;99654.28;;;15.97;34.65
51053;BME280;37093;37.716;-122.060;2023-02-14T03:27:34;99670.14;;;15.62;35.16
51053;BME280;37093;37.716;-122.060;2023-02-14T03:30:12;99666.16;;;14.75;36.06
51053;BME280;37093;37.716;-122.060;2023-02-14T03:32:50;99662.20;;;14.56;37.35
51053;BME280;37093;37.716;-122.060;2023-02-14T03:35:24;99666.13;;;15.33;36.60
51053;BME280;37093;37.716;-122.060;2023-02-14T03:38:02;99645.76;;;14.70;36.85
51053;BME280;37093;37.716;-122.060;2023-02-14T03:40:36;99660.79;;;14.35;36.84
51053;BME280;37093;37.716;-122.060;2023-02-14T03:43:10;99665.94;;;14.34;37.00
51053;BME280;37093;37.716;-122.060;2023-02-14T03:45:43;99688.81;;;14.60;36.23
51053;BME280;37093;37.716;-122.060;2023-02-14T03:48:14;99678.06;;;14.91;36.32
51053;BME280;37093;37.716;-122.060;2023-02-14T03:50:46;99674.86;;;14.94;35.76
51053;BME280;37093;37.716;-122.060;2023-02-14T03:53:19;99692.26;;;15.42;35.03
51053;BME280;37093;37.716;-122.060;2023-02-14T03:55:54;99695.65;;;15.48;35.05
51053;BME280;37093;37.716;-122.060;2023-02-14T03:58:31;99679.20;;;15.71;35.04
51053;BME280;37093;37.716;-122.060;2023-02-14T04:01:05;99684.69;;;16.00;34.38
51053;BME280;37093;37.716;-122.060;2023-02-14T04:03:37;99682.32;;;16.17;33.95
51053;BME280;37093;37.716;-122.060;2023-02-14T04:06:06;99702.87;;;15.87;34.25
51053;BME280;37093;37.716;-122.060;2023-02-14T04:08:35;99711.63;;;15.69;33.61
51053;BME280;37093;37.716;-122.060;2023-02-14T04:11:04;99708.67;;;16.05;33.56
51053;BME280;37093;37.716;-122.060;2023-02-14T04:13:34;99701.37;;;15.62;33.83
51053;BME280;37093;37.716;-122.060;2023-02-14T04:16:05;99710.67;;;15.44;33.44
51053;BME280;37093;37.716;-122.060;2023-02-14T04:18:33;99709.93;;;15.45;34.13
51053;BME280;37093;37.716;-122.060;2023-02-14T04:21:01;99698.35;;;15.09;35.30
51053;BME280;37093;37.716;-122.060;2023-02-14T04:23:31;99703.91;;;14.75;35.04
51053;BME280;37093;37.716;-122.060;2023-02-14T04:25:59;99717.60;;;14.34;36.01
51053;BME280;37093;37.716;-122.060;2023-02-14T04:28:29;99730.39;;;15.01;35.39
51053;BME280;37093;37.716;-122.060;2023-02-14T04:31:01;99732.29;;;14.67;35.35
51053;BME280;37093;37.716;-122.060;2023-02-14T04:33:31;99728.02;;;14.55;35.59
51053;BME280;37093;37.716;-122.060;2023-02-14T04:36:00;99724.50;;;13.92;35.54
51053;BME280;37093;37.716;-122.060;2023-02-14T04:38:28;99730.38;;;14.09;35.95
51053;BME280;37093;37.716;-122.060;2023-02-14T04:40:58;99736.40;;;14.11;35.66
51053;BME280;37093;37.716;-122.060;2023-02-14T04:43:26;99755.50;;;14.39;34.74
51053;BME280;37093;37.716;-122.060;2023-02-14T04:45:55;99787.36;;;14.40;34.96
51053;BME280;37093;37.716;-122.060;2023-02-14T04:48:23;99789.69;;;14.50;34.90
51053;BME280;37093;37.716;-122.060;2023-02-14T04:50:52;99778.34;;;14.75;34.79
51053;BME280;37093;37.716;-122.060;2023-02-14T04:53:21;99773.45;;;14.96;34.34
51053;BME280;37093;37.716;-122.060;2023-02-14T04:55:50;99765.34;;;14.78;33.86
51053;BME280;37093;37.716;-122.060;2023-02-14T04:58:18;99771.59;;;15.30;34.18
51053;BME280;37093;37.716;-122.060;2023-02-14T05:00:47;99779.28;;;14.78;34.12
51053;BME280;37093;37.716;-122.060;2023-02-14T05:03:15;99790.18;;;14.37;34.44
51053;BME280;37093;37.716;-122.060;2023-02-14T05:05:43;99793.70;;;14.60;34.47
51053;BME280;37093;37.716;-122.060;2023-02-14T05:08:12;99799.32;;;14.51;34.32
51053;BME280;37093;37.716;-122.060;2023-02-14T05:10:40;99811.49;;;14.12;35.09
51053;BME280;37093;37.716;-122.060;2023-02-14T05:13:09;99808.75;;;13.90;35.58
51053;BME280;37093;37.716;-122.060;2023-02-14T05:15:38;99816.57;;;13.95;35.32
51053;BME280;37093;37.716;-122.060;2023-02-14T05:18:06;99819.00;;;14.13;34.35
51053;BME280;37093;37.716;-122.060;2023-02-14T05:20:34;99821.69;;;14.28;34.63
51053;BME280;37093;37.716;-122.060;2023-02-14T05:23:02;99818.39;;;14.51;34.97
51053;BME280;37093;37.716;-122.060;2023-02-14T05:25:31;99818.84;;;14.49;34.07
51053;BME280;37093;37.716;-122.060;2023-02-14T05:27:59;99822.34;;;14.57;33.37
51053;BME280;37093;37.716;-122.060;2023-02-14T05:30:29;99819.52;;;14.61;33.57
51053;BME280;37093;37.716;-122.060;2023-02-14T05:32:57;99815.99;;;14.59;33.61
51053;BME280;37093;37.716;-122.060;2023-02-14T05:35:26;99812.59;;;14.76;33.36
51053;BME280;37093;37.716;-122.060;2023-02-14T05:37:54;99804.58;;;14.77;33.35
51053;BME280;37093;37.716;-122.060;2023-02-14T05:40:23;99805.59;;;14.62;33.45
51053;BME280;37093;37.716;-122.060;2023-02-14T05:42:52;99806.14;;;14.06;34.15
51053;BME280;37093;37.716;-122.060;2023-02-14T05:45:20;99811.76;;;13.99;34.21
51053;BME280;37093;37.716;-122.060;2023-02-14T05:47:49;99808.06;;;14.48;34.15
51053;BME280;37093;37.716;-122.060;2023-02-14T05:50:18;99809.44;;;14.08;34.04
51053;BME280;37093;37.716;-122.060;2023-02-14T05:52:46;99815.74;;;14.18;34.23
51053;BME280;37093;37.716;-122.060;2023-02-14T05:55:14;99811.50;;;14.58;33.29
51053;BME280;37093;37.716;-122.060;2023-02-14T05:57:43;99807.95;;;14.44;33.79
51053;BME280;37093;37.716;-122.060;2023-02-14T06:00:12;99813.31;;;14.74;33.30
51053;BME280;37093;37.716;-122.060;2023-02-14T06:02:41;99815.63;;;14.77;33.66
51053;BME280;37093;37.716;-122.060;2023-02-14T06:05:09;99829.62;;;14.60;33.67
51053;BME280;37093;37.716;-122.060;2023-02-14T06:07:38;99842.29;;;15.14;32.78
51053;BME280;37093;37.716;-122.060;2023-02-14T06:10:08;99846.12;;;14.90;33.00
51053;BME280;37093;37.716;-122.060;2023-02-14T06:12:36;99851.37;;;14.74;32.52
51053;BME280;37093;37.716;-122.060;2023-02-14T06:15:06;99856.14;;;14.73;32.81
51053;BME280;37093;37.716;-122.060;2023-02-14T06:17:34;99857.38;;;14.78;31.99
51053;BME280;37093;37.716;-122.060;2023-02-14T06:20:03;99859.95;;;14.89;32.62
51053;BME280;37093;37.716;-122.060;2023-02-14T06:22:32;99867.98;;;14.71;32.00
51053;BME280;37093;37.716;-122.060;2023-02-14T06:25:01;99866.18;;;14.84;32.06
51053;BME280;37093;37.716;-122.060;2023-02-14T06:27:30;99864.64;;;14.83;32.31
51053;BME280;37093;37.716;-122.060;2023-02-14T06:29:59;99868.06;;;14.80;32.51
51053;BME280;37093;37.716;-122.060;2023-02-14T06:32:28;99870.20;;;14.57;32.69
51053;BME280;37093;37.716;-122.060;2023-02-14T06:34:57;99867.06;;;14.63;32.31
51053;BME280;37093;37.716;-122.060;2023-02-14T06:37:25;99869.76;;;14.66;31.81
51053;BME280;37093;37.716;-122.060;2023-02-14T06:39:54;99879.59;;;14.86;31.84
51053;BME280;37093;37.716;-122.060;2023-02-14T06:42:22;99878.45;;;15.07;32.03
51053;BME280;37093;37.716;-122.060;2023-02-14T06:44:51;99877.38;;;14.79;31.33
51053;BME280;37093;37.716;-122.060;2023-02-14T06:47:20;99876.56;;;14.52;31.65
51053;BME280;37093;37.716;-122.060;2023-02-14T06:49:48;99881.09;;;15.00;32.15
51053;BME280;37093;37.716;-122.060;2023-02-14T06:52:17;99885.07;;;14.74;32.31
51053;BME280;37093;37.716;-122.060;2023-02-14T06:54:45;99888.86;;;14.98;32.64
51053;BME280;37093;37.716;-122.060;2023-02-14T06:57:14;99899.47;;;14.67;32.60
51053;BME280;37093;37.716;-122.060;2023-02-14T06:59:43;99904.39;;;14.81;32.01
51053;BME280;37093;37.716;-122.060;2023-02-14T07:02:11;99903.43;;;14.78;32.56
51053;BME280;37093;37.716;-122.060;2023-02-14T07:04:40;99904.03;;;14.76;32.18
51053;BME280;37093;37.716;-122.060;2023-02-14T07:07:08;99899.02;;;14.73;32.18
51053;BME280;37093;37.716;-122.060;2023-02-14T07:09:37;99898.60;;;14.67;32.32
51053;BME280;37093;37.716;-122.060;2023-02-14T07:12:06;99892.78;;;14.68;32.07
51053;BME280;37093;37.716;-122.060;2023-02-14T07:14:34;99893.69;;;14.65;32.11
51053;BME280;37093;37.716;-122.060;2023-02-14T07:17:02;99902.36;;;14.36;32.69
51053;BME280;37093;37.716;-122.060;2023-02-14T07:19:31;99915.82;;;14.59;33.52
51053;BME280;37093;37.716;-122.060;2023-02-14T07:21:59;99921.55;;;14.60;32.68
51053;BME280;37093;37.716;-122.060;2023-02-14T07:24:28;99924.38;;;14.30;32.92
51053;BME280;37093;37.716;-122.060;2023-02-14T07:26:56;99922.77;;;14.56;32.75
51053;BME280;37093;37.716;-122.060;2023-02-14T07:29:24;99918.35;;;14.49;32.60
51053;BME280;37093;37.716;-122.060;2023-02-14T07:31:53;99913.09;;;14.46;31.80
51053;BME280;37093;37.716;-122.060;2023-02-14T07:34:22;99914.67;;;14.37;32.12
51053;BME280;37093;37.716;-122.060;2023-02-14T07:36:51;99915.46;;;14.27;32.25
51053;BME280;37093;37.716;-122.060;2023-02-14T07:39:20;99916.49;;;14.46;32.14
51053;BME280;37093;37.716;-122.060;2023-02-14T07:41:48;99926.90;;;14.23;32.60
51053;BME280;37093;37.716;-122.060;2023-02-14T07:44:17;99925.59;;;13.94;32.37
51053;BME280;37093;37.716;-122.060;2023-02-14T07:46:46;99930.13;;;14.14;32.86
51053;BME280;37093;37.716;-122.060;2023-02-14T07:49:14;99938.77;;;14.06;32.71
51053;BME280;37093;37.716;-122.060;2023-02-14T07:51:43;99939.62;;;14.10;29.64
51053;BME280;37093;37.716;-122.060;2023-02-14T07:54:12;99935.76;;;13.99;31.36
51053;BME280;37093;37.716;-122.060;2023-02-14T07:56:40;99935.14;;;13.84;32.74
51053;BME280;37093;37.716;-122.060;2023-02-14T07:59:09;99931.21;;;13.91;32.28
51053;BME280;37093;37.716;-122.060;2023-02-14T08:01:12;99931.37;;;12.98;31.29
51053;BME280;37093;37.716;-122.060;2023-02-14T08:03:41;99928.15;;;12.95;30.57
51053;BME280;37093;37.716;-122.060;2023-02-14T08:06:10;99924.19;;;14.45;29.66
51053;BME280;37093;37.716;-122.060;2023-02-14T08:08:38;99925.54;;;14.93;28.77
51053;BME280;37093;37.716;-122.060;2023-02-14T08:11:07;99927.59;;;14.32;29.33
51053;BME280;37093;37.716;-122.060;2023-02-14T08:13:35;99931.63;;;14.47;29.32
51053;BME280;37093;37.716;-122.060;2023-02-14T08:16:04;99936.09;;;14.18;29.35
51053;BME280;37093;37.716;-122.060;2023-02-14T08:18:34;99945.32;;;13.99;29.42
51053;BME280;37093;37.716;-122.060;2023-02-14T08:21:04;99947.17;;;13.83;30.25
51053;BME280;37093;37.716;-122.060;2023-02-14T08:23:34;99947.24;;;13.68;29.97
51053;BME280;37093;37.716;-122.060;2023-02-14T08:26:02;99946.55;;;13.52;29.94
51053;BME280;37093;37.716;-122.060;2023-02-14T08:28:31;99944.37;;;13.90;29.96
51053;BME280;37093;37.716;-122.060;2023-02-14T08:30:59;99945.42;;;13.57;30.07
51053;BME280;37093;37.716;-122.060;2023-02-14T08:33:28;99946.91;;;13.69;30.36
51053;BME280;37093;37.716;-122.060;2023-02-14T08:35:57;99944.86;;;13.44;30.03
51053;BME280;37093;37.716;-122.060;2023-02-14T08:38:25;99942.30;;;13.65;31.55
51053;BME280;37093;37.716;-122.060;2023-02-14T08:40:54;99945.51;;;13.56;32.03
51053;BME280;37093;37.716;-122.060;2023-02-14T08:43:26;99947.00;;;13.31;31.19
51053;BME280;37093;37.716;-122.060;2023-02-14T08:45:54;99946.37;;;13.44;30.70
51053;BME280;37093;37.716;-122.060;2023-02-14T08:48:23;99952.81;;;13.42;31.39
51053;BME280;37093;37.716;-122.060;2023-02-14T08:50:51;99950.61;;;13.29;31.23
51053;BME280;37093;37.716;-122.060;2023-02-14T08:53:20;99945.18;;;13.25;31.00
51053;BME280;37093;37.716;-122.060;2023-02-14T08:55:49;99939.02;;;13.20;30.90
51053;BME280;37093;37.716;-122.060;2023-02-14T08:58:17;99940.44;;;13.18;29.98
51053;BME280;37093;37.716;-122.060;2023-02-14T09:00:45;99938.00;;;13.07;30.04
51053;BME280;37093;37.716;-122.060;2023-02-14T09:03:14;99932.66;;;13.02;29.82
51053;BME280;37093;37.716;-122.060;2023-02-14T09:05:43;99922.31;;;12.86;29.59
51053;BME280;37093;37.716;-122.060;2023-02-14T09:08:11;99918.92;;;12.90;29.89
51053;BME280;37093;37.716;-122.060;2023-02-14T09:10:40;99918.83;;;12.84;29.93
51053;BME280;37093;37.716;-122.060;2023-02-14T09:13:08;99920.12;;;12.84;29.96
51053;BME280;37093;37.716;-122.060;2023-02-14T09:15:37;99921.99;;;13.02;29.91
51053;BME280;37093;37.716;-122.060;2023-02-14T09:18:05;99924.43;;;12.64;29.71
51053;BME280;37093;37.716;-122.060;2023-02-14T09:20:34;99929.40;;;12.77;29.01
51053;BME280;37093;37.716;-122.060;2023-02-14T09:23:03;99931.64;;;12.52;28.92
51053;BME280;37093;37.716;-122.060;2023-02-14T09:25:31;99940.92;;;12.89;29.29
51053;BME280;37093;37.716;-122.060;2023-02-14T09:28:00;99948.03;;;12.35;28.66
51053;BME280;37093;37.716;-122.060;2023-02-14T09:30:28;99953.12;;;12.28;29.81
51053;BME280;37093;37.716;-122.060;2023-02-14T09:32:57;99950.78;;;12.42;29.99
51053;BME280;37093;37.716;-122.060;2023-02-14T09:35:26;99951.79;;;12.25;30.29
51053;BME280;37093;37.716;-122.060;2023-02-14T09:37:55;99951.76;;;12.27;30.56
51053;BME280;37093;37.716;-122.060;2023-02-14T09:40:24;99958.62;;;12.22;30.79
51053;BME280;37093;37.716;-122.060;2023-02-14T09:42:59;99960.92;;;12.02;30.20
51053;BME280;37093;37.716;-122.060;2023-02-14T09:45:32;99961.52;;;12.31;30.51
51053;BME280;37093;37.716;-122.060;2023-02-14T09:48:05;99961.19;;;12.36;29.86
51053;BME280;37093;37.716;-122.060;2023-02-14T09:50:39;99958.57;;;12.37;30.11
51053;BME280;37093;37.716;-122.060;2023-02-14T09:53:19;99961.01;;;12.16;29.86
51053;BME280;37093;37.716;-122.060;2023-02-14T09:55:54;99963.00;;;12.34;28.90
51053;BME280;37093;37.716;-122.060;2023-02-14T09:58:32;99964.84;;;12.21;30.37
51053;BME280;37093;37.716;-122.060;2023-02-14T10:01:09;99965.32;;;12.23;30.09
51053;BME280;37093;37.716;-122.060;2023-02-14T10:04:00;99964.77;;;12.02;30.59
51053;BME280;37093;37.716;-122.060;2023-02-14T10:06:44;99972.08;;;12.02;30.42
51053;BME280;37093;37.716;-122.060;2023-02-14T10:09:24;99968.33;;;12.08;29.58
51053;BME280;37093;37.716;-122.060;2023-02-14T10:11:57;99969.24;;;11.81;29.61
51053;BME280;37093;37.716;-122.060;2023-02-14T10:14:30;99976.15;;;11.97;30.01
51053;BME280;37093;37.716;-122.060;2023-02-14T10:17:04;99969.14;;;11.89;30.22
51053;BME280;37093;37.716;-122.060;2023-02-14T10:19:39;99970.03;;;11.90;29.95
51053;BME280;37093;37.716;-122.060;2023-02-14T10:22:13;99966.66;;;11.88;29.61
51053;BME280;37093;37.716;-122.060;2023-02-14T10:24:46;99969.60;;;12.09;30.05
51053;BME280;37093;37.716;-122.060;2023-02-14T10:27:28;99968.77;;;11.81;29.23
51053;BME280;37093;37.716;-122.060;2023-02-14T10:29:56;99965.62;;;11.63;29.70
51053;BME280;37093;37.716;-122.060;2023-02-14T10:32:30;99977.46;;;11.59;30.29
51053;BME280;37093;37.716;-122.060;2023-02-14T10:35:06;99979.79;;;11.71;29.24
51053;BME280;37093;37.716;-122.060;2023-02-14T10:37:49;99983.61;;;11.67;29.78
51053;BME280;37093;37.716;-122.060;2023-02-14T10:41:02;99978.64;;;11.51;31.17
51053;BME280;37093;37.716;-122.060;2023-02-14T10:43:37;99967.87;;;11.59;30.78
51053;BME280;37093;37.716;-122.060;2023-02-14T10:46:16;99968.20;;;11.60;30.72
51053;BME280;37093;37.716;-122.060;2023-02-14T10:48:55;99971.71;;;11.57;30.09
51053;BME280;37093;37.716;-122.060;2023-02-14T10:51:31;99975.36;;;11.73;30.53
51053;BME280;37093;37.716;-122.060;2023-02-14T10:54:16;99973.46;;;11.45;30.43
51053;BME280;37093;37.716;-122.060;2023-02-14T10:56:49;99971.64;;;11.40;31.01
51053;BME280;37093;37.716;-122.060;2023-02-14T10:59:24;99977.25;;;11.52;29.63
51053;BME280;37093;37.716;-122.060;2023-02-14T11:01:56;99981.85;;;11.29;30.44
51053;BME280;37093;37.716;-122.060;2023-02-14T11:04:26;99983.30;;;11.23;30.76
51053;BME280;37093;37.716;-122.060;2023-02-14T11:06:54;99979.67;;;11.09;29.24
51053;BME280;37093;37.716;-122.060;2023-02-14T11:09:23;99974.21;;;11.25;29.70
51053;BME280;37093;37.716;-122.060;2023-02-14T11:11:54;99978.15;;;11.49;29.54
51053;BME280;37093;37.716;-122.060;2023-02-14T11:14:25;99974.22;;;11.61;29.46
51053;BME280;37093;37.716;-122.060;2023-02-14T11:16:55;99970.23;;;11.67;29.46
51053;BME280;37093;37.716;-122.060;2023-02-14T11:19:25;99976.23;;;11.87;29.84
51053;BME280;37093;37.716;-122.060;2023-02-14T11:21:56;99988.02;;;11.50;30.05
51053;BME280;37093;37.716;-122.060;2023-02-14T11:24:28;99993.30;;;11.31;29.00
51053;BME280;37093;37.716;-122.060;2023-02-14T11:27:00;100001.14;;;11.48;29.26
51053;BME280;37093;37.716;-122.060;2023-02-14T11:29:32;100004.75;;;11.82;29.70
51053;BME280;37093;37.716;-122.060;2023-02-14T11:32:13;100011.08;;;11.58;28.89
51053;BME280;37093;37.716;-122.060;2023-02-14T11:34:46;100013.98;;;11.50;28.91
51053;BME280;37093;37.716;-122.060;2023-02-14T11:37:25;100016.40;;;11.78;29.84
51053;BME280;37093;37.716;-122.060;2023-02-14T11:39:57;100013.04;;;11.43;30.03
51053;BME280;37093;37.716;-122.060;2023-02-14T11:42:40;100012.43;;;11.62;28.70
51053;BME280;37093;37.716;-122.060;2023-02-14T11:45:29;100013.18;;;11.33;28.98
51053;BME280;37093;37.716;-122.060;2023-02-14T11:48:31;100017.07;;;11.22;29.23
51053;BME280;37093;37.716;-122.060;2023-02-14T11:51:02;100024.96;;;11.38;28.73
51053;BME280;37093;37.716;-122.060;2023-02-14T11:53:39;100027.22;;;11.89;29.51
51053;BME280;37093;37.716;-122.060;2023-02-14T11:56:11;100029.27;;;11.73;29.49
51053;BME280;37093;37.716;-122.060;2023-02-14T11:58:44;100026.13;;;11.25;29.54
51053;BME280;37093;37.716;-122.060;2023-02-14T12:01:22;100033.30;;;11.44;29.73
51053;BME280;37093;37.716;-122.060;2023-02-14T12:03:53;100032.91;;;11.21;30.72
51053;BME280;37093;37.716;-122.060;2023-02-14T12:06:24;100032.36;;;11.09;29.84
51053;BME280;37093;37.716;-122.060;2023-02-14T12:09:10;100030.65;;;10.70;30.23
51053;BME280;37093;37.716;-122.060;2023-02-14T12:11:39;100033.76;;;10.94;30.02
51053;BME280;37093;37.716;-122.060;2023-02-14T12:14:20;100050.21;;;10.81;30.36
51053;BME280;37093;37.716;-122.060;2023-02-14T12:16:55;100050.67;;;10.80;30.22
51053;BME280;37093;37.716;-122.060;2023-02-14T12:19:33;100047.30;;;10.50;30.58
51053;BME280;37093;37.716;-122.060;2023-02-14T12:22:04;100048.57;;;10.75;30.55
51053;BME280;37093;37.716;-122.060;2023-02-14T12:24:36;100050.90;;;10.62;30.56
51053;BME280;37093;37.716;-122.060;2023-02-14T12:27:18;100056.23;;;10.60;30.34
51053;BME280;37093;37.716;-122.060;2023-02-14T12:29:53;100056.28;;;10.51;30.81
51053;BME280;37093;37.716;-122.060;2023-02-14T12:32:27;100050.29;;;10.48;30.68
51053;BME280;37093;37.716;-122.060;2023-02-14T12:35:02;100052.61;;;10.90;30.41
51053;BME280;37093;37.716;-122.060;2023-02-14T12:37:41;100056.86;;;10.83;31.01
51053;BME280;37093;37.716;-122.060;2023-02-14T12:40:21;100057.52;;;10.40;30.82
51053;BME280;37093;37.716;-122.060;2023-02-14T12:43:14;100066.95;;;10.17;31.22
51053;BME280;37093;37.716;-122.060;2023-02-14T12:45:58;100067.37;;;10.18;30.91
51053;BME280;37093;37.716;-122.060;2023-02-14T12:48:41;100071.77;;;10.20;31.07
51053;BME280;37093;37.716;-122.060;2023-02-14T12:51:17;100071.28;;;10.12;31.04
51053;BME280;37093;37.716;-122.060;2023-02-14T12:54:00;100076.64;;;10.12;31.03